sensor_id;sensor_type;location;lat;lon;timestamp;pressure;altitude;pressure_sealevel;temperature;humidity
12247;BME280;6186;52.022;4.692;2023-05-25T00:02:13;102725.66;;;13.03;74.06
12247;BME280;6186;52.022;4.692;2023-05-25T00:04:38;102723.03;;;13.03;74.30
12247;BME280;6186;52.022;4.692;2023-05-25T00:07:03;102722.09;;;13.02;74.55
12247;BME280;6186;52.022;4.692;2023-05-25T00:09:28;102719.47;;;13.02;74.56
12247;BME280;6186;52.022;4.692;2023-05-25T00:11:54;102724.78;;;13.04;74.59
12247;BME280;6186;52.022;4.692;2023-05-25T00:14:20;102719.47;;;13.02;74.81
12247;BME280;6186;52.022;4.692;2023-05-25T00:16:45;102723.88;;;13.09;75.23
12247;BME280;6186;52.022;4.692;2023-05-25T00:19:10;102718.56;;;13.12;75.38
12247;BME280;6186;52.022;4.692;2023-05-25T00:21:36;102715.94;;;13.12;75.47
12247;BME280;6186;52.022;4.692;2023-05-25T00:24:01;102724.72;;;13.19;75.73
12247;BME280;6186;52.022;4.692;2023-05-25T00:26:26;102723.78;;;13.21;76.04
12247;BME280;6186;52.022;4.692;2023-05-25T00:28:51;102724.66;;;13.23;75.91
12247;BME280;6186;52.022;4.692;2023-05-25T00:31:17;102723.75;;;13.28;76.13
12247;BME280;6186;52.022;4.692;2023-05-25T00:33:42;102720.22;;;13.29;76.16
12247;BME280;6186;52.022;4.692;2023-05-25T00:36:07;102722.88;;;13.29;76.31
12247;BME280;6186;52.022;4.692;2023-05-25T00:38:33;102729.06;;;13.28;76.27
12247;BME280;6186;52.022;4.692;2023-05-25T00:40:58;102726.44;;;13.25;76.20
12247;BME280;6186;52.022;4.692;2023-05-25T00:43:23;102719.41;;;13.22;75.95
12247;BME280;6186;52.022;4.692;2023-05-25T00:45:49;102729.97;;;13.22;76.32
12247;BME280;6186;52.022;4.692;2023-05-25T00:48:14;102737.03;;;13.20;76.31
12247;BME280;6186;52.022;4.692;2023-05-25T00:50:41;102736.19;;;13.16;76.27
12247;BME280;6186;52.022;4.692;2023-05-25T00:53:08;102730.88;;;13.13;76.26
12247;BME280;6186;52.022;4.692;2023-05-25T00:55:38;102729.19;;;13.09;76.42
12247;BME280;6186;52.022;4.692;2023-05-25T00:58:04;102735.34;;;13.07;76.27
12247;BME280;6186;52.022;4.692;2023-05-25T01:00:29;102729.19;;;13.05;76.43
12247;BME280;6186;52.022;4.692;2023-05-25T01:02:57;102731.84;;;13.03;76.45
12247;BME280;6186;52.022;4.692;2023-05-25T01:05:24;102735.38;;;12.98;76.48
12247;BME280;6186;52.022;4.692;2023-05-25T01:07:51;102738.00;;;12.98;76.49
12247;BME280;6186;52.022;4.692;2023-05-25T01:10:21;102740.66;;;12.95;76.78
12247;BME280;6186;52.022;4.692;2023-05-25T01:12:49;102731.00;;;12.86;76.88
12247;BME280;6186;52.022;4.692;2023-05-25T01:15:17;102745.09;;;12.88;76.56
12247;BME280;6186;52.022;4.692;2023-05-25T01:17:42;102740.69;;;12.87;76.67
12247;BME280;6186;52.022;4.692;2023-05-25T01:20:08;102745.09;;;12.85;76.94
12247;BME280;6186;52.022;4.692;2023-05-25T01:22:47;102750.41;;;12.84;76.86
12247;BME280;6186;52.022;4.692;2023-05-25T01:25:19;102749.53;;;12.82;77.02
12247;BME280;6186;52.022;4.692;2023-05-25T01:30:24;102758.34;;;12.76;77.17
12247;BME280;6186;52.022;4.692;2023-05-25T01:32:52;102758.38;;;12.73;77.33
12247;BME280;6186;52.022;4.692;2023-05-25T01:35:17;102754.88;;;12.70;77.31
12247;BME280;6186;52.022;4.692;2023-05-25T01:37:47;102764.56;;;12.68;77.40
12247;BME280;6186;52.022;4.692;2023-05-25T01:40:13;102762.81;;;12.64;77.21
12247;BME280;6186;52.022;4.692;2023-05-25T01:42:38;102756.66;;;12.62;77.57
12247;BME280;6186;52.022;4.692;2023-05-25T01:45:04;102760.16;;;12.59;77.65
12247;BME280;6186;52.022;4.692;2023-05-25T01:50:09;102763.72;;;12.54;77.37
12247;BME280;6186;52.022;4.692;2023-05-25T01:52:40;102758.44;;;12.46;77.63
12247;BME280;6186;52.022;4.692;2023-05-25T01:55:14;102759.31;;;12.48;77.98
12247;BME280;6186;52.022;4.692;2023-05-25T01:57:41;102760.19;;;12.46;77.78
12247;BME280;6186;52.022;4.692;2023-05-25T02:00:09;102774.31;;;12.45;77.86
12247;BME280;6186;52.022;4.692;2023-05-25T02:02:37;102740.88;;;12.28;78.33
12247;BME280;6186;52.022;4.692;2023-05-25T02:05:03;102763.75;;;12.45;78.41
12247;BME280;6186;52.022;4.692;2023-05-25T02:07:29;102764.59;;;12.48;78.85
12247;BME280;6186;52.022;4.692;2023-05-25T02:09:54;102769.88;;;12.48;79.13
12247;BME280;6186;52.022;4.692;2023-05-25T02:12:19;102779.56;;;12.52;79.37
12247;BME280;6186;52.022;4.692;2023-05-25T02:14:44;102775.16;;;12.54;79.34
12247;BME280;6186;52.022;4.692;2023-05-25T02:17:10;102764.59;;;12.48;79.39
12247;BME280;6186;52.022;4.692;2023-05-25T02:19:35;102783.09;;;12.54;79.71
12247;BME280;6186;52.022;4.692;2023-05-25T02:22:00;102778.69;;;12.55;79.75
12247;BME280;6186;52.022;4.692;2023-05-25T02:24:25;102773.41;;;12.56;79.89
12247;BME280;6186;52.022;4.692;2023-05-25T02:26:51;102775.13;;;12.57;80.12
12247;BME280;6186;52.022;4.692;2023-05-25T02:29:16;102771.63;;;12.58;80.35
12247;BME280;6186;52.022;4.692;2023-05-25T02:31:42;102761.94;;;12.54;80.30
12247;BME280;6186;52.022;4.692;2023-05-25T02:34:07;102772.50;;;12.56;80.07
12247;BME280;6186;52.022;4.692;2023-05-25T02:36:33;102776.06;;;12.55;80.09
12247;BME280;6186;52.022;4.692;2023-05-25T02:38:58;102776.03;;;12.53;80.44
12247;BME280;6186;52.022;4.692;2023-05-25T02:41:23;102777.78;;;12.51;80.52
12247;BME280;6186;52.022;4.692;2023-05-25T02:43:49;102786.63;;;12.50;80.55
12247;BME280;6186;52.022;4.692;2023-05-25T02:46:14;102781.31;;;12.46;80.57
12247;BME280;6186;52.022;4.692;2023-05-25T02:48:40;102773.41;;;12.38;80.42
12247;BME280;6186;52.022;4.692;2023-05-25T02:51:06;102773.41;;;12.38;80.61
12247;BME280;6186;52.022;4.692;2023-05-25T02:53:31;102771.69;;;12.29;80.56
12247;BME280;6186;52.022;4.692;2023-05-25T02:55:56;102787.53;;;12.31;80.68
12247;BME280;6186;52.022;4.692;2023-05-25T02:58:21;102780.47;;;12.27;80.46
12247;BME280;6186;52.022;4.692;2023-05-25T03:00:48;102785.78;;;12.24;80.67
12247;BME280;6186;52.022;4.692;2023-05-25T03:03:13;102776.97;;;12.16;80.67
12247;BME280;6186;52.022;4.692;2023-05-25T03:05:39;102787.53;;;12.16;80.61
12247;BME280;6186;52.022;4.692;2023-05-25T03:08:04;102787.56;;;12.13;80.89
12247;BME280;6186;52.022;4.692;2023-05-25T03:10:29;102791.94;;;12.09;80.95
12247;BME280;6186;52.022;4.692;2023-05-25T03:12:54;102793.69;;;12.07;81.07
12247;BME280;6186;52.022;4.692;2023-05-25T03:15:20;102796.34;;;12.04;80.92
12247;BME280;6186;52.022;4.692;2023-05-25T03:17:45;102796.34;;;12.03;81.26
12247;BME280;6186;52.022;4.692;2023-05-25T03:20:10;102798.13;;;11.99;81.36
12247;BME280;6186;52.022;4.692;2023-05-25T03:22:36;102799.88;;;11.96;81.49
12247;BME280;6186;52.022;4.692;2023-05-25T03:25:02;102799.00;;;11.94;81.52
12247;BME280;6186;52.022;4.692;2023-05-25T03:27:27;102805.13;;;11.93;81.40
12247;BME280;6186;52.022;4.692;2023-05-25T03:29:53;102799.88;;;11.88;81.67
12247;BME280;6186;52.022;4.692;2023-05-25T03:32:18;102802.50;;;11.90;81.44
12247;BME280;6186;52.022;4.692;2023-05-25T03:34:43;102795.44;;;11.87;81.75
12247;BME280;6186;52.022;4.692;2023-05-25T03:37:08;102796.31;;;11.85;81.72
12247;BME280;6186;52.022;4.692;2023-05-25T03:39:33;102798.06;;;11.83;81.96
12247;BME280;6186;52.022;4.692;2023-05-25T03:41:59;102798.97;;;11.82;82.07
12247;BME280;6186;52.022;4.692;2023-05-25T03:44:24;102786.66;;;11.78;81.98
12247;BME280;6186;52.022;4.692;2023-05-25T03:46:49;102791.06;;;11.79;82.16
12247;BME280;6186;52.022;4.692;2023-05-25T03:49:14;102791.94;;;11.76;82.13
12247;BME280;6186;52.022;4.692;2023-05-25T03:51:41;102796.31;;;11.76;82.55
12247;BME280;6186;52.022;4.692;2023-05-25T03:54:06;102799.84;;;11.75;82.74
12247;BME280;6186;52.022;4.692;2023-05-25T03:56:31;102802.50;;;11.73;82.53
12247;BME280;6186;52.022;4.692;2023-05-25T03:58:57;102800.72;;;11.71;82.77
12247;BME280;6186;52.022;4.692;2023-05-25T04:01:22;102807.75;;;11.72;82.88
12247;BME280;6186;52.022;4.692;2023-05-25T04:03:47;102813.03;;;11.70;83.03
12247;BME280;6186;52.022;4.692;2023-05-25T04:06:12;102811.25;;;11.72;83.53
12247;BME280;6186;52.022;4.692;2023-05-25T04:08:38;102810.38;;;11.72;83.36
12247;BME280;6186;52.022;4.692;2023-05-25T04:11:03;102815.66;;;11.72;83.43
12247;BME280;6186;52.022;4.692;2023-05-25T04:13:28;102811.25;;;11.66;83.55
12247;BME280;6186;52.022;4.692;2023-05-25T04:15:54;102808.59;;;11.65;83.63
12247;BME280;6186;52.022;4.692;2023-05-25T04:18:19;102815.66;;;11.69;83.76
12247;BME280;6186;52.022;4.692;2023-05-25T04:20:45;102826.22;;;11.70;84.15
12247;BME280;6186;52.022;4.692;2023-05-25T04:23:10;102813.03;;;11.70;84.27
12247;BME280;6186;52.022;4.692;2023-05-25T04:25:35;102823.56;;;11.72;84.56
12247;BME280;6186;52.022;4.692;2023-05-25T04:28:01;102821.81;;;11.72;84.54
12247;BME280;6186;52.022;4.692;2023-05-25T04:30:26;102819.19;;;11.72;84.80
12247;BME280;6186;52.022;4.692;2023-05-25T04:32:51;102830.63;;;11.74;85.04
12247;BME280;6186;52.022;4.692;2023-05-25T04:35:16;102838.53;;;11.76;85.36
12247;BME280;6186;52.022;4.692;2023-05-25T04:37:41;102833.28;;;11.79;85.58
12247;BME280;6186;52.022;4.692;2023-05-25T04:40:07;102835.91;;;11.82;85.46
12247;BME280;6186;52.022;4.692;2023-05-25T04:42:33;102829.75;;;11.83;85.71
12247;BME280;6186;52.022;4.692;2023-05-25T04:44:58;102832.38;;;11.83;85.92
12247;BME280;6186;52.022;4.692;2023-05-25T04:47:23;102837.69;;;11.84;86.05
12247;BME280;6186;52.022;4.692;2023-05-25T04:49:49;102838.56;;;11.88;86.56
12247;BME280;6186;52.022;4.692;2023-05-25T04:52:14;102842.97;;;11.90;86.45
12247;BME280;6186;52.022;4.692;2023-05-25T04:54:39;102855.28;;;11.94;87.04
12247;BME280;6186;52.022;4.692;2023-05-25T04:57:05;102856.19;;;11.98;87.11
12247;BME280;6186;52.022;4.692;2023-05-25T04:59:30;102853.53;;;12.01;87.11
12247;BME280;6186;52.022;4.692;2023-05-25T05:01:55;102844.72;;;12.00;87.41
12247;BME280;6186;52.022;4.692;2023-05-25T05:04:20;102855.28;;;12.06;87.57
12247;BME280;6186;52.022;4.692;2023-05-25T05:06:46;102850.91;;;12.10;87.76
12247;BME280;6186;52.022;4.692;2023-05-25T05:09:11;102859.69;;;12.15;87.96
12247;BME280;6186;52.022;4.692;2023-05-25T05:11:36;102856.19;;;12.17;87.89
12247;BME280;6186;52.022;4.692;2023-05-25T05:14:01;102865.88;;;12.20;88.11
12247;BME280;6186;52.022;4.692;2023-05-25T05:16:27;102857.06;;;12.18;88.36
12247;BME280;6186;52.022;4.692;2023-05-25T05:18:52;102863.22;;;12.20;88.37
12247;BME280;6186;52.022;4.692;2023-05-25T05:21:17;102865.00;;;12.25;88.98
12247;BME280;6186;52.022;4.692;2023-05-25T05:23:43;102865.00;;;12.32;89.10
12247;BME280;6186;52.022;4.692;2023-05-25T05:26:08;102865.88;;;12.35;89.20
12247;BME280;6186;52.022;4.692;2023-05-25T05:28:33;102860.56;;;12.38;89.46
12247;BME280;6186;52.022;4.692;2023-05-25T05:30:59;102860.59;;;12.43;89.60
12247;BME280;6186;52.022;4.692;2023-05-25T05:33:24;102866.75;;;12.46;89.67
12247;BME280;6186;52.022;4.692;2023-05-25T05:35:49;102868.50;;;12.50;89.81
12247;BME280;6186;52.022;4.692;2023-05-25T05:38:15;102870.28;;;12.54;89.91
12247;BME280;6186;52.022;4.692;2023-05-25T05:40:40;102877.31;;;12.58;90.29
12247;BME280;6186;52.022;4.692;2023-05-25T05:43:05;102884.38;;;12.62;90.55
12247;BME280;6186;52.022;4.692;2023-05-25T05:45:31;102887.88;;;12.67;90.64
12247;BME280;6186;52.022;4.692;2023-05-25T05:47:56;102876.44;;;12.70;90.61
12247;BME280;6186;52.022;4.692;2023-05-25T05:50:21;102882.59;;;12.73;90.72
12247;BME280;6186;52.022;4.692;2023-05-25T05:52:46;102882.56;;;12.76;90.83
12247;BME280;6186;52.022;4.692;2023-05-25T05:55:11;102884.31;;;12.80;91.26
12247;BME280;6186;52.022;4.692;2023-05-25T05:57:37;102890.47;;;12.85;91.72
12247;BME280;6186;52.022;4.692;2023-05-25T06:00:02;102893.13;;;12.90;91.79
12247;BME280;6186;52.022;4.692;2023-05-25T06:02:27;102890.47;;;12.96;92.02
12247;BME280;6186;52.022;4.692;2023-05-25T06:04:53;102901.91;;;12.98;91.99
12247;BME280;6186;52.022;4.692;2023-05-25T06:07:18;102906.31;;;12.97;91.90
12247;BME280;6186;52.022;4.692;2023-05-25T06:09:43;102916.91;;;12.96;91.80
12247;BME280;6186;52.022;4.692;2023-05-25T06:12:08;102914.28;;;12.94;91.94
12247;BME280;6186;52.022;4.692;2023-05-25T06:14:34;102917.75;;;12.96;92.15
12247;BME280;6186;52.022;4.692;2023-05-25T06:16:59;102917.75;;;13.02;92.72
12247;BME280;6186;52.022;4.692;2023-05-25T06:19:24;102916.03;;;13.07;92.81
12247;BME280;6186;52.022;4.692;2023-05-25T06:21:50;102916.91;;;13.11;93.04
12247;BME280;6186;52.022;4.692;2023-05-25T06:24:15;102917.75;;;13.11;93.09
12247;BME280;6186;52.022;4.692;2023-05-25T06:26:40;102918.63;;;13.18;93.41
12247;BME280;6186;52.022;4.692;2023-05-25T06:29:05;102910.72;;;13.18;93.56
12247;BME280;6186;52.022;4.692;2023-05-25T06:31:31;102918.59;;;13.29;93.97
12247;BME280;6186;52.022;4.692;2023-05-25T06:33:56;102918.59;;;13.35;94.11
12247;BME280;6186;52.022;4.692;2023-05-25T06:36:21;102915.91;;;13.41;94.26
12247;BME280;6186;52.022;4.692;2023-05-25T06:38:46;102915.91;;;13.44;94.26
12247;BME280;6186;52.022;4.692;2023-05-25T06:41:11;102922.06;;;13.49;94.71
12247;BME280;6186;52.022;4.692;2023-05-25T06:43:37;102917.63;;;13.52;94.91
12247;BME280;6186;52.022;4.692;2023-05-25T06:46:02;102917.59;;;13.60;95.18
12247;BME280;6186;52.022;4.692;2023-05-25T06:48:27;102916.69;;;13.67;95.38
12247;BME280;6186;52.022;4.692;2023-05-25T06:50:52;102929.91;;;13.71;95.56
12247;BME280;6186;52.022;4.692;2023-05-25T06:53:18;102934.28;;;13.77;95.79
12247;BME280;6186;52.022;4.692;2023-05-25T06:55:43;102928.09;;;13.81;95.94
12247;BME280;6186;52.022;4.692;2023-05-25T06:58:08;102936.00;;;13.88;96.26
12247;BME280;6186;52.022;4.692;2023-05-25T07:00:33;102933.31;;;13.96;96.66
12247;BME280;6186;52.022;4.692;2023-05-25T07:02:58;102931.50;;;14.04;96.89
12247;BME280;6186;52.022;4.692;2023-05-25T07:05:24;102946.47;;;14.09;96.74
12247;BME280;6186;52.022;4.692;2023-05-25T07:07:49;102942.91;;;14.12;97.06
12247;BME280;6186;52.022;4.692;2023-05-25T07:10:14;102941.97;;;14.22;97.70
12247;BME280;6186;52.022;4.692;2023-05-25T07:12:39;102953.41;;;14.33;98.16
12247;BME280;6186;52.022;4.692;2023-05-25T07:15:05;102943.66;;;14.37;98.24
12247;BME280;6186;52.022;4.692;2023-05-25T07:17:30;102952.41;;;14.46;98.22
12247;BME280;6186;52.022;4.692;2023-05-25T07:19:56;102957.69;;;14.55;98.81
12247;BME280;6186;52.022;4.692;2023-05-25T07:22:21;102959.34;;;14.65;99.27
12247;BME280;6186;52.022;4.692;2023-05-25T07:24:46;102955.72;;;14.72;99.48
12247;BME280;6186;52.022;4.692;2023-05-25T07:27:12;102956.47;;;14.92;100.00
12247;BME280;6186;52.022;4.692;2023-05-25T07:29:38;102959.81;;;15.09;100.00
12247;BME280;6186;52.022;4.692;2023-05-25T07:32:03;102958.75;;;15.26;100.00
12247;BME280;6186;52.022;4.692;2023-05-25T07:34:28;102960.47;;;15.31;100.00
12247;BME280;6186;52.022;4.692;2023-05-25T07:36:54;102962.19;;;15.38;100.00
12247;BME280;6186;52.022;4.692;2023-05-25T07:39:19;102960.34;;;15.48;100.00
12247;BME280;6186;52.022;4.692;2023-05-25T07:41:44;102963.81;;;15.53;100.00
12247;BME280;6186;52.022;4.692;2023-05-25T07:44:09;102959.41;;;15.52;100.00
12247;BME280;6186;52.022;4.692;2023-05-25T07:46:34;102960.16;;;15.60;100.00
12247;BME280;6186;52.022;4.692;2023-05-25T07:49:00;102966.31;;;15.63;100.00
12247;BME280;6186;52.022;4.692;2023-05-25T07:51:28;102955.59;;;15.72;100.00
12247;BME280;6186;52.022;4.692;2023-05-25T07:53:53;102959.00;;;15.83;100.00
12247;BME280;6186;52.022;4.692;2023-05-25T07:56:18;102960.63;;;15.92;100.00
12247;BME280;6186;52.022;4.692;2023-05-25T07:58:44;102960.44;;;16.06;100.00
12247;BME280;6186;52.022;4.692;2023-05-25T08:01:09;102968.09;;;16.28;100.00
12247;BME280;6186;52.022;4.692;2023-05-25T08:03:34;102971.44;;;16.42;100.00
12247;BME280;6186;52.022;4.692;2023-05-25T08:06:00;102968.56;;;16.57;100.00
12247;BME280;6186;52.022;4.692;2023-05-25T08:08:25;102971.88;;;16.73;100.00
12247;BME280;6186;52.022;4.692;2023-05-25T08:10:50;102978.91;;;16.75;100.00
12247;BME280;6186;52.022;4.692;2023-05-25T08:13:15;102977.19;;;16.73;100.00
12247;BME280;6186;52.022;4.692;2023-05-25T08:15:41;102979.00;;;16.69;100.00
12247;BME280;6186;52.022;4.692;2023-05-25T08:18:06;102974.41;;;16.80;100.00
12247;BME280;6186;52.022;4.692;2023-05-25T08:20:31;102978.38;;;17.06;100.00
12247;BME280;6186;52.022;4.692;2023-05-25T08:22:56;102979.78;;;17.25;100.00
12247;BME280;6186;52.022;4.692;2023-05-25T08:25:21;102977.09;;;17.26;100.00
12247;BME280;6186;52.022;4.692;2023-05-25T08:27:47;102976.31;;;17.21;100.00
12247;BME280;6186;52.022;4.692;2023-05-25T08:30:12;102985.19;;;17.22;100.00
12247;BME280;6186;52.022;4.692;2023-05-25T08:32:37;102984.44;;;17.14;100.00
12247;BME280;6186;52.022;4.692;2023-05-25T08:35:03;102991.59;;;17.10;100.00
12247;BME280;6186;52.022;4.692;2023-05-25T08:37:30;102997.09;;;17.01;100.00
12247;BME280;6186;52.022;4.692;2023-05-25T08:39:55;102998.09;;;16.92;100.00
12247;BME280;6186;52.022;4.692;2023-05-25T08:42:20;102996.56;;;16.79;100.00
12247;BME280;6186;52.022;4.692;2023-05-25T08:44:46;103002.00;;;16.72;100.00
12247;BME280;6186;52.022;4.692;2023-05-25T08:47:12;102998.59;;;16.64;100.00
12247;BME280;6186;52.022;4.692;2023-05-25T08:49:38;103004.78;;;16.64;100.00
12247;BME280;6186;52.022;4.692;2023-05-25T08:52:04;102997.59;;;16.69;100.00
12247;BME280;6186;52.022;4.692;2023-05-25T08:54:35;103002.84;;;16.75;100.00
12247;BME280;6186;52.022;4.692;2023-05-25T08:57:09;102997.44;;;16.80;100.00
12247;BME280;6186;52.022;4.692;2023-05-25T09:02:30;103004.22;;;16.98;100.00
12247;BME280;6186;52.022;4.692;2023-05-25T09:04:58;102998.66;;;17.13;100.00
12247;BME280;6186;52.022;4.692;2023-05-25T09:07:23;103000.09;;;17.30;100.00
12247;BME280;6186;52.022;4.692;2023-05-25T09:09:50;102998.94;;;17.45;100.00
12247;BME280;6186;52.022;4.692;2023-05-25T09:12:16;102997.81;;;17.58;100.00
12247;BME280;6186;52.022;4.692;2023-05-25T09:14:41;102995.19;;;17.55;100.00
12247;BME280;6186;52.022;4.692;2023-05-25T09:17:08;103002.34;;;17.53;100.00
12247;BME280;6186;52.022;4.692;2023-05-25T09:19:34;103000.66;;;17.47;100.00
12247;BME280;6186;52.022;4.692;2023-05-25T09:22:00;103003.28;;;17.52;100.00
12247;BME280;6186;52.022;4.692;2023-05-25T09:24:25;102991.56;;;17.59;100.00
12247;BME280;6186;52.022;4.692;2023-05-25T09:26:50;103001.41;;;18.00;100.00
12247;BME280;6186;52.022;4.692;2023-05-25T09:29:15;102999.41;;;18.49;100.00
12247;BME280;6186;52.022;4.692;2023-05-25T09:31:41;102990.03;;;19.03;100.00
12247;BME280;6186;52.022;4.692;2023-05-25T09:34:13;102991.03;;;19.31;100.00
12247;BME280;6186;52.022;4.692;2023-05-25T09:36:41;102994.47;;;19.38;100.00
12247;BME280;6186;52.022;4.692;2023-05-25T09:39:08;103002.84;;;19.23;100.00
12247;BME280;6186;52.022;4.692;2023-05-25T09:41:34;102996.25;;;19.04;100.00
12247;BME280;6186;52.022;4.692;2023-05-25T09:44:00;102991.38;;;18.86;100.00
12247;BME280;6186;52.022;4.692;2023-05-25T09:46:25;102998.03;;;18.69;100.00
12247;BME280;6186;52.022;4.692;2023-05-25T09:48:50;102994.72;;;18.58;100.00
12247;BME280;6186;52.022;4.692;2023-05-25T09:51:16;102998.53;;;18.84;100.00
12247;BME280;6186;52.022;4.692;2023-05-25T09:53:41;102994.66;;;19.29;100.00
12247;BME280;6186;52.022;4.692;2023-05-25T09:56:07;102997.06;;;19.72;100.00
12247;BME280;6186;52.022;4.692;2023-05-25T09:58:32;103000.50;;;20.06;100.00
12247;BME280;6186;52.022;4.692;2023-05-25T10:00:57;103004.19;;;20.31;100.00
12247;BME280;6186;52.022;4.692;2023-05-25T10:03:22;102992.50;;;20.61;100.00
12247;BME280;6186;52.022;4.692;2023-05-25T10:05:48;102991.22;;;20.74;100.00
12247;BME280;6186;52.022;4.692;2023-05-25T10:08:16;102993.41;;;20.88;100.00
12247;BME280;6186;52.022;4.692;2023-05-25T10:10:44;102990.16;;;21.06;100.00
12247;BME280;6186;52.022;4.692;2023-05-25T10:13:11;102989.41;;;21.01;100.00
12247;BME280;6186;52.022;4.692;2023-05-25T10:15:40;102989.06;;;20.84;100.00
12247;BME280;6186;52.022;4.692;2023-05-25T10:18:08;102989.69;;;20.66;100.00
12247;BME280;6186;52.022;4.692;2023-05-25T10:20:34;102984.25;;;20.41;100.00
12247;BME280;6186;52.022;4.692;2023-05-25T10:23:04;102979.97;;;20.35;100.00
12247;BME280;6186;52.022;4.692;2023-05-25T10:25:38;102997.06;;;20.31;100.00
12247;BME280;6186;52.022;4.692;2023-05-25T10:28:18;102984.94;;;20.20;100.00
12247;BME280;6186;52.022;4.692;2023-05-25T10:30:46;102992.91;;;20.21;100.00
12247;BME280;6186;52.022;4.692;2023-05-25T10:33:13;102994.38;;;20.31;100.00
12247;BME280;6186;52.022;4.692;2023-05-25T10:35:39;102991.66;;;20.33;100.00
12247;BME280;6186;52.022;4.692;2023-05-25T10:38:05;102999.91;;;20.25;100.00
12247;BME280;6186;52.022;4.692;2023-05-25T10:40:32;103000.09;;;20.19;100.00
12247;BME280;6186;52.022;4.692;2023-05-25T10:42:57;103007.47;;;20.11;100.00
12247;BME280;6186;52.022;4.692;2023-05-25T10:45:23;102997.91;;;20.03;100.00
12247;BME280;6186;52.022;4.692;2023-05-25T10:47:49;103006.75;;;20.05;100.00
12247;BME280;6186;52.022;4.692;2023-05-25T10:50:22;103009.66;;;19.97;100.00
12247;BME280;6186;52.022;4.692;2023-05-25T10:53:08;103000.47;;;19.77;99.12
12247;BME280;6186;52.022;4.692;2023-05-25T10:56:00;102999.78;;;19.70;99.10
12247;BME280;6186;52.022;4.692;2023-05-25T10:58:27;103002.75;;;19.59;98.33
12247;BME280;6186;52.022;4.692;2023-05-25T11:01:09;103011.94;;;19.49;98.04
12247;BME280;6186;52.022;4.692;2023-05-25T11:06:12;102999.72;;;19.41;98.48
12247;BME280;6186;52.022;4.692;2023-05-25T11:08:56;103009.16;;;19.54;99.14
12247;BME280;6186;52.022;4.692;2023-05-25T11:14:22;103004.41;;;19.94;100.00
12247;BME280;6186;52.022;4.692;2023-05-25T11:17:12;102997.78;;;20.36;100.00
12247;BME280;6186;52.022;4.692;2023-05-25T11:24:37;103011.22;;;20.04;98.61
12247;BME280;6186;52.022;4.692;2023-05-25T11:27:03;103008.00;;;19.93;98.66
12247;BME280;6186;52.022;4.692;2023-05-25T11:29:31;103005.31;;;19.93;99.50
12247;BME280;6186;52.022;4.692;2023-05-25T11:31:56;103006.09;;;19.98;99.78
12247;BME280;6186;52.022;4.692;2023-05-25T11:34:22;102994.16;;;20.10;100.00
12247;BME280;6186;52.022;4.692;2023-05-25T11:36:52;102996.97;;;20.34;100.00
12247;BME280;6186;52.022;4.692;2023-05-25T11:39:19;102981.97;;;20.83;100.00
12247;BME280;6186;52.022;4.692;2023-05-25T11:41:54;102980.84;;;21.16;100.00
12247;BME280;6186;52.022;4.692;2023-05-25T11:44:27;102981.44;;;21.24;100.00
12247;BME280;6186;52.022;4.692;2023-05-25T11:46:53;102974.50;;;21.18;100.00
12247;BME280;6186;52.022;4.692;2023-05-25T11:49:20;102982.25;;;21.01;99.01
12247;BME280;6186;52.022;4.692;2023-05-25T11:51:45;102990.78;;;20.86;98.29
12247;BME280;6186;52.022;4.692;2023-05-25T11:54:20;102992.94;;;20.75;97.72
12247;BME280;6186;52.022;4.692;2023-05-25T11:56:45;102986.00;;;20.70;98.09
12247;BME280;6186;52.022;4.692;2023-05-25T11:59:10;102986.13;;;20.65;97.36
12247;BME280;6186;52.022;4.692;2023-05-25T12:01:35;102988.47;;;20.49;95.91
12247;BME280;6186;52.022;4.692;2023-05-25T12:04:07;102989.91;;;20.32;95.41
12247;BME280;6186;52.022;4.692;2023-05-25T12:06:32;102986.78;;;20.18;94.54
12247;BME280;6186;52.022;4.692;2023-05-25T12:09:00;102979.97;;;20.06;94.53
12247;BME280;6186;52.022;4.692;2023-05-25T12:11:31;102986.84;;;20.15;95.26
12247;BME280;6186;52.022;4.692;2023-05-25T12:13:57;102992.72;;;20.27;96.04
12247;BME280;6186;52.022;4.692;2023-05-25T12:16:23;102992.41;;;20.36;95.77
12247;BME280;6186;52.022;4.692;2023-05-25T12:18:50;102984.25;;;20.41;95.54
12247;BME280;6186;52.022;4.692;2023-05-25T12:21:16;102987.66;;;20.46;95.02
12247;BME280;6186;52.022;4.692;2023-05-25T12:23:41;102986.81;;;20.45;94.66
12247;BME280;6186;52.022;4.692;2023-05-25T12:26:08;102985.91;;;20.45;94.47
12247;BME280;6186;52.022;4.692;2023-05-25T12:28:34;102986.88;;;20.42;94.33
12247;BME280;6186;52.022;4.692;2023-05-25T12:31:18;102982.41;;;20.43;94.38
12247;BME280;6186;52.022;4.692;2023-05-25T12:33:43;102982.03;;;20.55;95.09
12247;BME280;6186;52.022;4.692;2023-05-25T12:36:09;102976.44;;;20.61;94.92
12247;BME280;6186;52.022;4.692;2023-05-25T12:38:34;102977.84;;;20.73;95.16
12247;BME280;6186;52.022;4.692;2023-05-25T12:41:06;102982.59;;;20.91;96.29
12247;BME280;6186;52.022;4.692;2023-05-25T12:43:38;102985.75;;;21.03;96.16
12247;BME280;6186;52.022;4.692;2023-05-25T12:46:03;102992.81;;;21.06;94.65
12247;BME280;6186;52.022;4.692;2023-05-25T12:48:29;102993.19;;;20.94;93.34
12247;BME280;6186;52.022;4.692;2023-05-25T12:50:57;102976.75;;;20.80;92.67
12247;BME280;6186;52.022;4.692;2023-05-25T12:53:23;102982.03;;;20.81;92.91
12247;BME280;6186;52.022;4.692;2023-05-25T12:55:48;102976.78;;;20.78;93.41
12247;BME280;6186;52.022;4.692;2023-05-25T12:58:26;102985.16;;;20.94;93.84
12247;BME280;6186;52.022;4.692;2023-05-25T13:00:52;102982.28;;;21.00;93.94
12247;BME280;6186;52.022;4.692;2023-05-25T13:03:17;102977.53;;;21.09;93.42
12247;BME280;6186;52.022;4.692;2023-05-25T13:05:42;102975.41;;;21.19;93.78
12247;BME280;6186;52.022;4.692;2023-05-25T13:08:07;102976.69;;;21.32;94.45
12247;BME280;6186;52.022;4.692;2023-05-25T13:10:37;102971.00;;;21.41;94.06
12247;BME280;6186;52.022;4.692;2023-05-25T13:13:02;102974.63;;;21.40;92.87